Flight Track Log - Related Links

Times and Time Zones

All times are in EST time to prevent confusion due to time zone crossing. See the SKW4449 flight status page for this flight to view local times or setup timezone preferences in your user account.

Time Position Orientation Groundspeed Altitude Reporting Facility
EST Latitude Longitude Course Direction KTS MPH feet Rate Location/Type
Sun 07:52:15 PM 42.2236 -83.3556 11° North 158 182 1,200  Level Cleveland Center
Sun 07:52:46 PM 42.2450 -83.3500 11° North 170 196 2,500 2,870 Climbing Cleveland Center
Sun 07:53:47 PM 42.3031 -83.3328 12° North 225 259 5,600 2,963 Climbing Cleveland Center
Sun 07:54:07 PM 42.3214 -83.3417 340° North 219 252 6,500 3,200 Climbing Cleveland Center
Sun 07:54:47 PM 42.3536 -83.3822 317° Northwest 244 281 8,800 3,484 Climbing Cleveland Center
Sun 07:55:09 PM 42.3606 -83.4106 288° West 238 274 10,100 3,441 Climbing Cleveland Center
Sun 07:55:55 PM 42.3650 -83.4800 275° West 234 269 12,700 2,754 Climbing Cleveland Center
Sun 07:56:10 PM 42.3681 -83.5003 282° West 239 275 12,900 234 Climbing Cleveland Center
Sun 07:57:12 PM 42.3764 -83.5953 277° West 270 311 13,000 1,161 Climbing Cleveland Center
Sun 07:58:14 PM 42.3856 -83.6975 277° West 272 313 15,300 2,683 Climbing Cleveland Center
Sun 07:59:15 PM 42.3964 -83.8228 277° West 279 321 18,500 2,976 Climbing Cleveland Center
Sun 08:00:17 PM 42.4061 -83.9289 277° West 285 328 21,400 2,371 Climbing Cleveland Center
Sun 08:01:19 PM 42.4147 -84.0378 276° West 291 335 23,400 2,293 Climbing Cleveland Center
Sun 08:02:20 PM 42.4250 -84.1467 277° West 292 336 26,100 2,195 Climbing Cleveland Center
Sun 08:03:22 PM 42.4319 -84.2653 275° West 292 336 27,900 1,839 Climbing Cleveland Center
Sun 08:04:24 PM 42.4331 -84.3708 271° West 303 349 29,900 1,286 Climbing Cleveland Center
Sun 08:05:00 PM 42.4350 -84.4469 272° West 299 344 30,000 61 Climbing Chicago Center
Sun 08:06:02 PM 42.4381 -84.5564 272° West 292 336 30,000  Level Chicago Center
Sun 08:07:04 PM 42.4406 -84.6658 272° West 291 335 30,000 48 Level Chicago Center
Sun 08:08:06 PM 42.4433 -84.7744 272° West 290 334 30,100 829 Climbing Chicago Center
Sun 08:09:07 PM 42.4464 -84.8842 272° West 292 336 31,700 927 Climbing Chicago Center
Sun 08:10:09 PM 42.4494 -85.0181 272° West 299 344 32,000 581 Climbing Chicago Center
Sun 08:11:11 PM 42.4514 -85.1283 271° West 294 338 32,900 1,161 Climbing Chicago Center
Sun 08:12:13 PM 42.4533 -85.2397 271° West 295 339 34,400 1,452 Climbing Chicago Center
Sun 08:13:15 PM 42.4553 -85.3475 271° West 291 335 35,900 1,463 Climbing Chicago Center
Sun 08:14:16 PM 42.4569 -85.4539 271° West 286 329 37,400 1,024 Climbing Chicago Center
Sun 08:15:18 PM 42.4581 -85.5572 271° West 279 321 38,000 290 Climbing Chicago Center
Sun 08:16:20 PM 42.4597 -85.6617 271° West 277 319 38,000  Level Chicago Center
Sun 08:17:22 PM 42.4619 -85.7847 271° West 275 316 38,000  Level Chicago Center
Sun 08:18:23 PM 42.4633 -85.8858 271° West 270 311 38,000  Level Chicago Center
Sun 08:19:25 PM 42.4650 -85.9894 271° West 272 313 38,000  Level Chicago Center
Sun 08:20:27 PM 42.4661 -86.0936 271° West 275 316 38,000  Level Chicago Center
Sun 08:21:29 PM 42.4692 -86.2000 272° West 280 322 38,000  Level Chicago Center
Sun 08:22:31 PM 42.4722 -86.3131 272° West 297 342 38,000  Level Chicago Center
Sun 08:23:32 PM 42.4761 -86.4289 273° West 306 352 38,000  Level Chicago Center
Sun 08:24:34 PM 42.4781 -86.5439 271° West 305 351 38,000  Level Chicago Center
Sun 08:25:36 PM 42.4836 -86.6747 273° West 309 356 38,000  Level Chicago Center
Sun 08:26:38 PM 42.4872 -86.7911 272° West 310 357 38,000  Level Chicago Center
Sun 08:27:40 PM 42.4900 -86.9067 272° West 308 354 38,000  Level Chicago Center
Sun 08:28:42 PM 42.4933 -87.0464 272° West 312 359 38,000  Level Chicago Center
Sun 08:29:43 PM 42.4944 -87.1594 271° West 306 352 38,000  Level Chicago Center
Sun 08:30:46 PM 42.4964 -87.2775 271° West 313 360 38,000  Level Chicago Center
Sun 08:31:47 PM 42.4997 -87.3928 272° West 311 358 38,000  Level Chicago Center
Sun 08:32:49 PM 42.5008 -87.5097 271° West 312 359 38,000  Level Chicago Center
Sun 08:33:51 PM 42.5033 -87.6269 272° West 313 360 38,000  Level Chicago Center
Sun 08:34:53 PM 42.5058 -87.7542 272° West 314 361 38,000  Level Chicago Center
Sun 08:35:54 PM 42.5072 -87.8728 271° West 314 361 38,000  Level Chicago Center
Sun 08:36:56 PM 42.5094 -87.9914 271° West 314 361 38,000  Level Chicago Center
Sun 08:37:58 PM 42.5117 -88.1328 271° West 313 360 38,000  Level Chicago Center
Sun 08:39:00 PM 42.5133 -88.2481 271° West 306 352 38,000  Level Chicago Center
Sun 08:40:02 PM 42.5142 -88.3531 271° West 287 330 38,000  Level Chicago Center
Sun 08:41:03 PM 42.5153 -88.4600 271° West 282 325 38,000  Level Chicago Center
Sun 08:42:05 PM 42.5169 -88.5725 271° West 295 339 38,000  Level Chicago Center
Sun 08:43:07 PM 42.5172 -88.6878 270° West 303 349 38,000  Level Chicago Center
Sun 08:44:09 PM 42.5194 -88.8050 272° West 308 354 38,000  Level Chicago Center
Sun 08:45:11 PM 42.5211 -88.9422 271° West 304 350 38,000  Level Chicago Center
Sun 08:46:13 PM 42.5222 -89.0522 271° West 294 338 38,000  Level Chicago Center
Sun 08:47:14 PM 42.5222 -89.1619 270° West 290 334 38,000  Level Chicago Center
Sun 08:48:16 PM 42.5228 -89.2717 270° West 291 335 38,000  Level Chicago Center
Sun 08:49:18 PM 42.5225 -89.3808 270° West 290 334 38,000  Level Chicago Center
Sun 08:50:20 PM 42.5225 -89.4931 270° West 295 339 38,000  Level Chicago Center
Sun 08:51:22 PM 42.5236 -89.6069 271° West 302 348 38,000  Level Chicago Center
Sun 08:52:24 PM 42.5236 -89.7419 270° West 299 344 38,000  Level Chicago Center
Sun 08:53:26 PM 42.5219 -89.8586 269° West 306 352 38,000  Level Chicago Center
Sun 08:54:28 PM 42.5236 -89.9781 271° West 317 365 38,000  Level Chicago Center
Sun 08:55:30 PM 42.5203 -90.0953 268° West 317 365 38,000  Level Chicago Center
Sun 08:56:32 PM 42.5211 -90.2111 271° West 311 358 38,000  Level Chicago Center
Sun 08:57:33 PM 42.5206 -90.3272 270° West 310 357 38,000  Level Chicago Center
Sun 08:58:35 PM 42.5208 -90.4422 270° West 308 354 38,000  Level Chicago Center
Sun 08:59:37 PM 42.5194 -90.5814 269° West 308 354 38,000  Level Chicago Center
Sun 09:00:39 PM 42.5197 -90.6972 270° West 310 357 38,000  Level Chicago Center
Sun 09:01:41 PM 42.5178 -90.8122 269° West 308 354 38,000  Level Chicago Center
Sun 09:02:43 PM 42.5172 -90.9283 270° West 308 354 38,000  Level Chicago Center
Sun 09:03:45 PM 42.5167 -91.0436 270° West 308 354 38,000  Level Chicago Center
Sun 09:04:46 PM 42.5133 -91.1619 268° West 313 360 38,000  Level Chicago Center
Sun 09:05:48 PM 42.5133 -91.2786 270° West 312 359 38,000  Level Chicago Center
Sun 09:06:50 PM 42.5103 -91.4197 268° West 312 359 38,000  Level Chicago Center
Sun 09:07:52 PM 42.5086 -91.5394 269° West 315 362 38,000  Level Chicago Center
Sun 09:08:53 PM 42.5075 -91.6594 269° West 316 364 38,000  Level Chicago Center
Sun 09:09:55 PM 42.5044 -91.7789 268° West 316 364 38,000  Level Chicago Center
Sun 09:10:57 PM 42.5031 -91.8986 269° West 317 365 38,000  Level Chicago Center
Sun 09:11:58 PM 42.4981 -92.0192 267° West 319 367 38,000  Level Chicago Center
Sun 09:13:00 PM 42.4808 -92.1350 259° West 314 361 38,000  Level Chicago Center
Sun 09:14:02 PM 42.4650 -92.2528 260° West 316 364 38,000  Level Chicago Center
Sun 09:15:04 PM 42.4433 -92.3942 258° West 319 367 38,000  Level Chicago Center
Sun 09:16:05 PM 42.4269 -92.5139 260° West 322 371 38,000  Level Chicago Center
Sun 09:17:07 PM 42.4097 -92.6339 259° West 325 374 38,000  Level Chicago Center
Sun 09:18:09 PM 42.3925 -92.7542 259° West 327 376 38,000  Level Chicago Center
Sun 09:19:10 PM 42.3753 -92.8758 259° West 328 377 38,000  Level Chicago Center
Sun 09:20:12 PM 42.3578 -92.9958 259° West 327 376 38,000  Level Chicago Center
Sun 09:21:13 PM 42.3397 -93.1167 259° West 329 379 38,000  Level Chicago Center
Sun 09:22:14 PM 42.3225 -93.2381 259° West 328 377 38,000  Level Minneapolis Center
Sun 09:23:16 PM 42.3003 -93.3828 258° West 328 377 38,000  Level Minneapolis Center
Sun 09:24:17 PM 42.2814 -93.5050 258° West 330 380 38,000  Level Minneapolis Center
Sun 09:25:19 PM 42.2625 -93.6264 258° West 330 380 38,000  Level Minneapolis Center
Sun 09:26:20 PM 42.2444 -93.7486 259° West 331 381 38,000  Level Minneapolis Center
Sun 09:27:22 PM 42.2253 -93.8689 258° West 332 382 38,000  Level Minneapolis Center
Sun 09:28:24 PM 42.2075 -93.9881 259° West 332 382 38,000  Level Minneapolis Center
Sun 09:29:25 PM 42.1847 -94.1347 258° West 332 382 38,000  Level Minneapolis Center
Sun 09:30:27 PM 42.1636 -94.2583 257° West 334 384 38,000  Level Minneapolis Center
Sun 09:31:28 PM 42.1433 -94.3853 258° West 340 391 38,000  Level Minneapolis Center
Sun 09:32:30 PM 42.1228 -94.5128 258° West 347 399 38,000  Level Minneapolis Center
Sun 09:33:31 PM 42.1025 -94.6417 258° West 348 400 38,000  Level Minneapolis Center
Sun 09:34:33 PM 42.0811 -94.7719 258° West 352 405 38,000  Level Minneapolis Center
Sun 09:35:34 PM 42.0592 -94.9039 257° West 356 410 38,000  Level Minneapolis Center
Sun 09:36:36 PM 42.0378 -95.0358 258° West 359 413 38,000  Level Minneapolis Center
Sun 09:37:37 PM 42.0106 -95.1958 257° West 362 417 38,000  Level Minneapolis Center
Sun 09:38:39 PM 41.9875 -95.3311 257° West 370 426 38,000  Level Minneapolis Center
Sun 09:39:40 PM 41.9653 -95.4669 258° West 371 427 38,000  Level Minneapolis Center
Sun 09:40:42 PM 41.9411 -95.6028 257° West 373 429 38,000  Level Minneapolis Center
Sun 09:41:43 PM 41.9181 -95.7392 257° West 374 430 38,000  Level Minneapolis Center
Sun 09:42:45 PM 41.8936 -95.8764 257° West 376 433 38,000  Level Minneapolis Center
Sun 09:43:46 PM 41.8697 -96.0114 257° West 376 433 38,000  Level Minneapolis Center
Sun 09:44:48 PM 41.8447 -96.1506 256° West 381 438 38,000  Level Minneapolis Center
Sun 09:45:49 PM 41.8164 -96.3164 257° West 383 441 38,000  Level Minneapolis Center
Sun 09:46:50 PM 41.7911 -96.4542 256° West 383 441 38,000  Level Minneapolis Center
Sun 09:47:52 PM 41.7658 -96.5936 256° West 384 442 38,000  Level Minneapolis Center
Sun 09:48:53 PM 41.7403 -96.7308 256° West 384 442 38,000  Level Minneapolis Center
Sun 09:49:55 PM 41.7153 -96.8700 257° West 384 442 38,000  Level Minneapolis Center
Sun 09:50:56 PM 41.6894 -97.0097 256° West 384 442 38,000  Level Minneapolis Center
Sun 09:51:58 PM 41.6633 -97.1494 256° West 386 444 38,000  Level Minneapolis Center
Sun 09:52:59 PM 41.6308 -97.3178 256° West 387 445 38,000  Level Minneapolis Center
Sun 09:54:00 PM 41.6047 -97.4592 256° West 389 448 38,000  Level Minneapolis Center
Sun 09:55:02 PM 41.5781 -97.5997 256° West 390 449 38,000  Level Minneapolis Center
Sun 09:56:03 PM 41.5500 -97.7414 255° West 390 449 38,000  Level Minneapolis Center
Sun 09:57:05 PM 41.5225 -97.8822 255° West 391 450 38,000  Level Minneapolis Center
Sun 09:58:06 PM 41.4958 -98.0233 256° West 391 450 38,000  Level Minneapolis Center
Sun 09:59:07 PM 41.4744 -98.1778 260° West 392 451 38,000  Level Minneapolis Center
Sun 10:00:09 PM 41.4553 -98.3208 260° West 392 451 38,000  Level Minneapolis Center
Sun 10:01:10 PM 41.4353 -98.4622 259° West 392 451 38,000  Level Minneapolis Center
Sun 10:02:11 PM 41.4131 -98.6225 260° West 392 451 38,000  Level Minneapolis Center
Sun 10:03:13 PM 41.3903 -98.7639 258° West 392 451 38,000  Level Minneapolis Center
Sun 10:04:14 PM 41.3683 -98.9042 258° West 392 451 38,000  Level Minneapolis Center
Sun 10:05:15 PM 41.3497 -99.0439 260° West 390 449 38,000  Level Minneapolis Center
Sun 10:06:11 PM 41.3336 -99.1594 260° West 389 448 38,000  Level Denver Center
Sun 10:07:13 PM 41.3086 -99.3275 259° West 389 448 38,000  Level Denver Center
Sun 10:08:15 PM 41.2864 -99.4669 258° West 388 447 38,000  Level Denver Center
Sun 10:09:17 PM 41.2658 -99.6017 259° West 388 447 38,000  Level Denver Center
Sun 10:10:18 PM 41.2425 -99.7567 259° West 388 447 38,000  Level Denver Center
Sun 10:11:20 PM 41.2217 -99.8911 258° West 388 447 38,000  Level Denver Center
Sun 10:12:22 PM 41.2000 -100.0239 258° West 388 447 38,000  Level Denver Center
Sun 10:13:23 PM 41.1758 -100.1800 258° West 388 447 38,000  Level Denver Center
Sun 10:14:25 PM 41.1556 -100.3136 259° West 388 447 38,000  Level Denver Center
Sun 10:15:27 PM 41.1300 -100.4706 258° West 388 447 38,000  Level Denver Center
Sun 10:16:29 PM 41.1078 -100.6050 258° West 389 448 38,000  Level Denver Center
Sun 10:17:30 PM 41.0817 -100.7617 258° West 390 449 38,000  Level Denver Center
Sun 10:18:32 PM 41.0594 -100.8964 258° West 392 451 38,000  Level Denver Center
Sun 10:19:34 PM 41.0350 -101.0544 258° West 393 452 38,000  Level Denver Center
Sun 10:20:35 PM 41.0114 -101.1897 257° West 394 453 38,000  Level Denver Center
Sun 10:21:37 PM 40.9853 -101.3492 258° West 397 457 38,000  Level Denver Center
Sun 10:22:39 PM 40.9617 -101.4872 257° West 399 459 38,000  Level Denver Center
Sun 10:23:40 PM 40.9333 -101.6478 257° West 400 460 38,000  Level Denver Center
Sun 10:24:42 PM 40.9103 -101.7869 258° West 402 463 38,000  Level Denver Center
Sun 10:25:44 PM 40.8819 -101.9469 257° West 402 463 38,000  Level Denver Center
Sun 10:26:46 PM 40.8575 -102.0847 257° West 402 463 38,000  Level Denver Center
Sun 10:27:47 PM 40.8331 -102.2228 257° West 403 464 38,000  Level Denver Center
Sun 10:28:49 PM 40.8028 -102.3831 256° West 404 465 38,000  Level Denver Center
Sun 10:29:51 PM 40.7783 -102.5208 257° West 404 465 38,000  Level Denver Center
Sun 10:30:52 PM 40.7492 -102.6817 257° West 404 465 38,000  Level Denver Center
Sun 10:31:54 PM 40.7236 -102.8208 256° West 405 466 38,000  Level Denver Center
Sun 10:32:56 PM 40.6933 -102.9808 256° West 405 466 38,000  Level Denver Center
Sun 10:33:57 PM 40.6681 -103.1214 257° West 406 467 38,000  Level Denver Center
Sun 10:34:59 PM 40.6403 -103.2642 256° West 405 466 38,000  Level Denver Center
Sun 10:36:01 PM 40.6133 -103.4069 256° West 404 465 38,000  Level Denver Center
Sun 10:37:02 PM 40.5861 -103.5483 256° West 404 465 38,000  Level Denver Center
Sun 10:38:04 PM 40.5653 -103.6614 256° West 400 460 38,000  Level Denver Center
Sun 10:39:06 PM 40.5275 -103.8586 256° West 400 460 38,000  Level Denver Center
Sun 10:40:07 PM 40.5003 -103.9972 256° West 397 457 38,000  Level Denver Center
Sun 10:41:09 PM 40.4867 -104.1378 263° West 390 449 38,000  Level Denver Center
Sun 10:42:10 PM 40.4733 -104.2789 263° West 390 449 38,000  Level Denver Center
Sun 10:43:12 PM 40.4603 -104.4186 263° West 390 449 38,000  Level Denver Center
Sun 10:44:13 PM 40.4467 -104.5567 263° West 389 448 38,000  Level Denver Center
Sun 10:45:15 PM 40.4336 -104.6964 263° West 388 447 38,000  Level Denver Center
Sun 10:46:17 PM 40.4167 -104.8631 262° West 388 447 38,000  Level Denver Center
Sun 10:47:18 PM 40.4025 -105.0003 262° West 387 445 38,000  Level Denver Center
Sun 10:48:20 PM 40.3881 -105.1422 262° West 390 449 38,000  Level Denver Center
Sun 10:49:21 PM 40.3736 -105.2833 262° West 390 449 38,000  Level Denver Center
Sun 10:50:23 PM 40.3586 -105.4222 262° West 389 448 38,000  Level Denver Center
Sun 10:51:24 PM 40.3442 -105.5628 262° West 390 449 38,000  Level Denver Center
Sun 10:52:38 PM 40.3294 -105.7017 262° West 389 448 38,000  Level Denver Center
Sun 10:53:40 PM 40.3083 -105.8967 262° West 389 448 38,000  Level Denver Center
Sun 10:54:41 PM 40.2931 -106.0350 262° West 388 447 38,000  Level Denver Center
Sun 10:55:43 PM 40.2767 -106.1742 261° West 385 443 38,000  Level Denver Center
Sun 10:56:44 PM 40.2625 -106.3053 262° West 383 441 38,000  Level Denver Center
Sun 10:57:46 PM 40.2456 -106.4589 262° West 383 441 38,000  Level Denver Center
Sun 10:58:47 PM 40.2306 -106.5919 262° West 383 441 38,000  Level Denver Center
Sun 10:59:49 PM 40.2114 -106.7447 261° West 383 441 38,000  Level Denver Center
Sun 11:00:50 PM 40.1967 -106.8764 262° West 383 441 38,000 -585 Level Denver Center
Sun 11:01:52 PM 40.1819 -107.0061 262° West 380 437 36,800 -976 Descending Denver Center
Sun 11:02:53 PM 40.1617 -107.1581 260° West 380 437 36,000 -439 Descending Denver Center
Sun 11:03:55 PM 40.1469 -107.2931 262° West 390 449 35,900 -829 Descending Denver Center
Sun 11:04:56 PM 40.1300 -107.4419 262° West 375 432 34,300 -1,415 Descending Denver Center
Sun 11:05:58 PM 40.1139 -107.5653 260° West 362 417 33,000 -1,122 Descending Denver Center
Sun 11:06:59 PM 40.0972 -107.7000 261° West 389 448 32,000 -488 Descending Denver Center
Sun 11:08:01 PM 40.0783 -107.8492 261° West 375 432 32,000  Level Denver Center
Sun 11:09:02 PM 40.0708 -107.9703 265° West 359 413 32,000  Level Denver Center
Sun 11:10:03 PM 40.0764 -108.1117 273° West 349 402 32,000  Level Denver Center
Sun 11:11:05 PM 40.0814 -108.2358 273° West 357 411 32,000  Level Denver Center
Sun 11:12:06 PM 40.0889 -108.3828 274° West 364 419 32,000  Level Denver Center
Sun 11:13:08 PM 40.0936 -108.5081 273° West 364 419 32,000  Level Denver Center
Sun 11:14:09 PM 40.0981 -108.6147 273° West 366 421 32,000  Level Denver Center
Sun 11:15:11 PM 40.1047 -108.7817 273° West 365 420 32,000  Level Denver Center
Sun 11:16:12 PM 40.1103 -108.9075 273° West 363 418 32,000  Level Denver Center
Sun 11:17:13 PM 40.1153 -109.0550 273° West 364 419 32,000  Level Denver Center
Sun 11:17:54 PM 40.1189 -109.1372 273° West 362 417 32,000  Level Salt Lake Center
Sun 11:18:55 PM 40.1231 -109.2631 273° West 364 419 32,000  Level Salt Lake Center
Sun 11:19:56 PM 40.1278 -109.4078 272° West 360 414 32,000  Level Salt Lake Center
Sun 11:20:57 PM 40.1319 -109.5344 273° West 363 418 32,000  Level Salt Lake Center
Sun 11:21:59 PM 40.1364 -109.6825 272° West 366 421 32,000  Level Salt Lake Center
Sun 11:23:00 PM 40.1403 -109.8081 272° West 364 419 32,000  Level Salt Lake Center
Sun 11:24:01 PM 40.1431 -109.9342 272° West 364 419 32,000  Level Salt Lake Center
Sun 11:25:02 PM 40.1483 -110.0817 273° West 364 419 32,000  Level Salt Lake Center
Sun 11:26:03 PM 40.1494 -110.2072 271° West 363 418 32,000  Level Salt Lake Center
Sun 11:27:04 PM 40.1478 -110.3536 269° West 362 417 32,000  Level Salt Lake Center
Sun 11:28:06 PM 40.1469 -110.4789 270° West 362 417 32,000  Level Salt Lake Center
Sun 11:29:07 PM 40.1453 -110.6053 269° West 362 417 32,000  Level Salt Lake Center
Sun 11:30:08 PM 40.1436 -110.7517 269° West 363 418 32,000  Level Salt Lake Center
Sun 11:31:09 PM 40.1417 -110.8778 269° West 363 418 32,000 -1,230 Level Salt Lake Center
Sun 11:32:10 PM 40.1411 -111.0203 270° West 365 420 29,500 -2,705 Descending Salt Lake Center
Sun 11:33:11 PM 40.1394 -111.1536 269° West 366 421 26,500 -2,927 Descending Salt Lake Center
Sun 11:34:13 PM 40.1358 -111.2864 268° West 366 421 23,500 -2,927 Descending Salt Lake Center
Sun 11:35:14 PM 40.1328 -111.4203 268° West 368 423 20,500 -2,213 Descending Salt Lake Center
Sun 11:36:15 PM 40.1333 -111.5439 270° West 340 391 19,000 -1,364 Descending Salt Lake Center
Sun 11:36:20 PM 40.1344 -111.5686 273° West 332 382 19,000  Level Salt Lake Center
Sun 11:36:38 PM 40.1458 -111.6039 293° West 348 400 19,000  Level Salt Lake Center
Sun 11:37:16 PM 40.1714 -111.6581 302° West 343 395 19,000  Level Salt Lake Center
Sun 11:37:38 PM 40.1853 -111.7142 288° West 347 399 19,000 -1,082 Level Salt Lake Center
Sun 11:38:17 PM 40.2311 -111.7556 325° Northwest 356 410 17,900 -1,967 Descending Salt Lake Center
Sun 11:38:39 PM 40.2683 -111.7956 321° Northwest 353 406 17,000 -2,032 Descending Salt Lake Center
Sun 11:39:19 PM 40.3114 -111.8219 335° Northwest 341 392 15,800 -1,869 Descending Salt Lake Center
Sun 11:39:40 PM 40.3478 -111.8586 322° Northwest 336 387 15,100 -800 Descending Salt Lake Center
Sun 11:40:19 PM 40.3911 -111.8844 336° Northwest 336 387 15,000 -100 Descending Salt Lake Center
Sun 11:40:40 PM 40.4286 -111.9183 325° Northwest 338 389 15,000 -97 Level Salt Lake Center
Sun 11:41:21 PM 40.4714 -111.9481 332° Northwest 336 387 14,900 -1,200 Descending Salt Lake Center
Sun 11:41:35 PM 40.5028 -111.9778 324° Northwest 334 384 13,900 -1,869 Descending Salt Lake Center
Sun 11:42:22 PM 40.5511 -112.0114 332° Northwest 334 384 13,000 -1,700 Descending Salt Lake Center
Sun 11:42:35 PM 40.5814 -112.0386 326° Northwest 333 383 12,200 -1,869 Descending Salt Lake Center
Sun 11:43:23 PM 40.6486 -112.0778 336° Northwest 329 379 11,100 -1,082 Descending Salt Lake Center
Sun 11:43:36 PM 40.6656 -112.0836 345° North 335 386 11,100 -98 Level Salt Lake Center
Sun 11:44:24 PM 40.7411 -112.0886 357° North 330 380 11,000 -98 Descending Salt Lake Center
Sun 11:44:37 PM 40.7581 -112.0950 344° North 319 367 11,000  Level Salt Lake Center
Sun 11:45:25 PM 40.8192 -112.0986 357° North 271 312 11,000 -200 Level Salt Lake Center
Sun 11:45:37 PM 40.8331 -112.1036 345° North 243 280 10,800 -1,672 Descending Salt Lake Center
Sun 11:46:26 PM 40.8822 -112.1053 359° North 223 257 9,300 -1,770 Descending Salt Lake Center
Sun 11:46:38 PM 40.8942 -112.1083 349° North 217 250 9,000 -1,833 Descending Salt Lake Center
Sun 11:47:38 PM 40.9247 -112.0556 53° Northeast 192 221 7,100 -1,636 Descending Salt Lake Center
Sun 11:48:28 PM 40.9117 -112.0128 112° Southeast 172 198 6,000 -1,082 Descending Salt Lake Center
Sun 11:48:39 PM 40.9033 -112.0117 174° South 144 166 6,000 -393 Level Salt Lake Center
Sun 11:49:29 PM 40.8747 -112.0075 174° South 133 153 5,600 -590 Descending Salt Lake Center
Sun 11:49:40 PM 40.8681 -112.0067 175° South 125 144 5,400 -689 Descending Salt Lake Center
Sun 11:50:30 PM 40.8403 -112.0025 174° South 126 145 4,900 -700 Descending Salt Lake Center
Sun 11:50:40 PM 40.8306 -112.0025 180° South 129 148 4,700 -590 Descending Salt Lake Center
Sun 11:51:31 PM 40.8056 -111.9989 174° South 125 144 4,300 -471 Descending Salt Lake Center
Sun 11:53:00 PM 40.7884 -111.9778 130° Southeast  Level Estimated

Login

Don't have an account? Register now (free) for customized features, flight alerts, and more!